Annapolis, MD (21403)

12:01 PM EDT on October 22, 2014 (GMT -0400)
Bay Ridge | Change Station
CLOSE
Current Station
Personal Weather Station
Location: Annapolis, MD
Elevation: 11 m
Nearby Weather Stations

Elev 11 m 38.94 °N, 76.46 °W | Updated 2 seconds ago

Overcast
Overcast
13.3 °C
Feels Like 13.3 °C
N
6.1
Wind Variable Wind from SW
Gusts 11.1 km/h

Today
High -- | Low -- °C
--% Chance of Precip.
Yesterday
High -- | Low -- °C
Precip. -- mm
7:22 AM 6:17 PM
Waning Crescent, 2% visible
Pressure 1012 hPa
Visibility 14.5 kilometers
Clouds Mostly Cloudy 518 m
Overcast 731 m
Dew Point 13 °C
Humidity 99%
Rainfall 11 mm
Snow Depth Not available.
UV 1 out of 12
Pollen .30 out of 12
Air Quality Not available.
Flu Activity Sporadic
METAR KNAK 221554Z AUTO 34013KT 9SM BKN017 OVC024 14/12 A2990 RMK AO2 RAB01E18 SLP125 P0000 T01390117

More Conditions Fewer Conditions

Pressure 1012 hPa
Visibility 14.5 kilometers
Clouds Mostly Cloudy 518 m
Overcast 731 m
Dew Point 13 °C
Humidity 99%
Rainfall 11 mm
Snow Depth Not available.
UV 1 out of 12
Pollen .30 out of 12
Air Quality Not available.
Flu Activity Sporadic
METAR KNAK 221554Z AUTO 34013KT 9SM BKN017 OVC024 14/12 A2990 RMK AO2 RAB01E18 SLP125 P0000 T01390117

More Conditions Fewer Conditions

10-Day Weather Forecast

Almanac

Astronomy

Oct. 22, 2014 Rise Set
Actual Time 7:22 AM EDT 6:17 PM EDT
Civil Twilight 6:55 AM EDT 6:44 PM EDT
Nautical Twilight 6:24 AM EDT 7:15 PM EDT
Astronomical Twilight 5:53 AM EDT 7:46 PM EDT
Moon 6:02 AM EDT 5:42 PM EDT
Length of Visible Light 11h 49m
Length of Day
10h 55m
Tomorrow will be 2m 21s shorter.
Waning Crescent, 2% of the Moon is Illuminated
Today
Waning Crescent
Oct 23
New
Oct 30
First Quarter
Nov 6
Full
Nov 14
Last Quarter

Today's Extremes

State Highs State Lows

Community

WunderPhotos

Upload Photos

1,763,956 photos uploaded!

Nearby

Snow Depth

Station Depth Elevation
No new snow has been reported.

Earthquake Activity

City Distance Mag. Time & Date
No recent earthquake activity has been reported nearby.
Minimum magnitude displayed is 2.5.

Coastal Water Temperatures

Place Temperature
Cambridge, MD 17.2 °C
Tolchester Beach, MD 16.1 °C
Baltimore, MD 18.3 °C

Nearby Weather Stations